createdAt,value
2023-05-05T00:01:35.343Z,41.79
2023-05-05T00:04:02.535Z,40.30
2023-05-05T00:06:29.317Z,40.52
2023-05-05T00:08:56.350Z,39.93
2023-05-05T00:11:23.699Z,42.90
2023-05-05T00:13:51.547Z,40.31
2023-05-05T00:16:18.472Z,42.50
2023-05-05T00:18:45.580Z,41.43
2023-05-05T00:21:12.332Z,44.97
2023-05-05T00:23:39.482Z,40.61
2023-05-05T00:26:06.615Z,40.29
2023-05-05T00:28:33.340Z,41.86
2023-05-05T00:31:00.421Z,42.90
2023-05-05T00:33:27.274Z,40.43
2023-05-05T00:35:53.961Z,42.32
2023-05-05T00:38:20.791Z,40.27
2023-05-05T00:40:47.547Z,39.81
2023-05-05T00:43:14.254Z,41.92
2023-05-05T00:45:44.257Z,43.78
2023-05-05T00:48:11.629Z,42.83
2023-05-05T00:50:38.773Z,40.78
2023-05-05T00:53:06.966Z,40.15
2023-05-05T00:55:35.428Z,42.11
2023-05-05T00:58:04.579Z,40.30
2023-05-05T01:00:32.013Z,40.78
2023-05-05T01:02:59.747Z,39.88
2023-05-05T01:05:40.032Z,40.06
2023-05-05T01:08:33.735Z,45.12
2023-05-05T01:11:12.299Z,42.78
2023-05-05T01:13:52.639Z,40.81
2023-05-05T01:16:25.224Z,46.97
2023-05-05T01:19:04.959Z,43.31
2023-05-05T01:21:45.679Z,43.03
2023-05-05T01:24:18.789Z,40.80
2023-05-05T01:27:11.863Z,40.06
2023-05-05T01:30:02.225Z,41.81
2023-05-05T01:32:33.960Z,41.64
2023-05-05T01:35:03.175Z,40.55
2023-05-05T01:37:43.560Z,40.59
2023-05-05T01:40:13.665Z,39.31
2023-05-05T01:42:43.558Z,41.29
2023-05-05T01:45:12.827Z,43.39
2023-05-05T01:47:42.041Z,40.30
2023-05-05T01:50:10.550Z,41.75
2023-05-05T01:52:39.339Z,42.13
2023-05-05T01:55:08.529Z,41.67
2023-05-05T01:57:37.277Z,40.57
2023-05-05T02:00:05.405Z,40.51
2023-05-05T02:02:45.195Z,40.88
2023-05-05T02:05:13.307Z,39.83
2023-05-05T02:07:40.606Z,40.47
2023-05-05T02:10:13.135Z,40.48
2023-05-05T02:12:42.714Z,45.21
2023-05-05T02:15:11.333Z,43.12
2023-05-05T02:17:42.931Z,45.39
2023-05-05T02:20:14.069Z,43.08
2023-05-05T02:22:41.232Z,46.16
2023-05-05T02:25:09.470Z,42.41
2023-05-05T02:27:40.764Z,40.40
2023-05-05T02:30:11.373Z,43.36
2023-05-05T02:32:42.922Z,41.21
2023-05-05T02:35:24.597Z,41.64
2023-05-05T02:37:59.841Z,40.46
2023-05-05T02:40:31.446Z,42.79
2023-05-05T02:43:01.872Z,43.38
2023-05-05T02:45:30.863Z,40.13
2023-05-05T02:47:57.934Z,40.96
2023-05-05T02:50:24.837Z,42.02
2023-05-05T02:53:00.275Z,41.35
2023-05-05T02:55:33.462Z,41.20
2023-05-05T02:58:07.735Z,40.34
2023-05-05T03:01:04.694Z,40.38
2023-05-05T03:03:40.142Z,41.14
2023-05-05T03:06:21.796Z,39.81
2023-05-05T03:09:03.263Z,40.77
2023-05-05T03:11:42.827Z,42.72
2023-05-05T03:14:13.566Z,42.47
2023-05-05T03:16:42.872Z,40.61
2023-05-05T03:19:12.991Z,43.12
2023-05-05T03:21:41.188Z,42.57
2023-05-05T03:24:26.453Z,41.86
2023-05-05T03:27:09.037Z,45.27
2023-05-05T03:29:38.362Z,41.35
2023-05-05T03:32:09.474Z,40.56
2023-05-05T03:34:37.845Z,40.51
2023-05-05T03:37:06.041Z,39.78
2023-05-05T03:39:33.405Z,43.88
2023-05-05T03:42:00.441Z,45.11
2023-05-05T03:44:30.892Z,42.34
2023-05-05T03:46:57.909Z,42.63
2023-05-05T03:49:25.616Z,42.43
2023-05-05T03:51:52.713Z,41.55
2023-05-05T03:54:19.474Z,42.20
2023-05-05T03:56:46.273Z,42.35
2023-05-05T03:59:13.225Z,40.67
2023-05-05T04:01:40.268Z,41.34
2023-05-05T04:04:07.501Z,41.40
2023-05-05T04:06:35.560Z,40.40
2023-05-05T04:09:03.123Z,41.85
2023-05-05T04:11:29.884Z,45.68
2023-05-05T04:13:57.353Z,43.95
2023-05-05T04:16:25.071Z,43.26
2023-05-05T04:18:52.404Z,41.24
2023-05-05T04:21:19.198Z,43.98
2023-05-05T04:23:46.503Z,41.49
2023-05-05T04:26:13.663Z,41.12
2023-05-05T04:28:42.280Z,42.27
2023-05-05T04:31:09.375Z,46.07
2023-05-05T04:33:39.819Z,43.35
2023-05-05T04:36:07.041Z,41.72
2023-05-05T04:38:34.065Z,41.07
2023-05-05T04:41:06.512Z,41.42
2023-05-05T04:43:34.207Z,42.98
2023-05-05T04:46:01.021Z,40.94
2023-05-05T04:48:30.869Z,42.54
2023-05-05T04:50:57.649Z,45.34
2023-05-05T04:53:24.477Z,45.73
2023-05-05T04:55:51.688Z,44.60
2023-05-05T04:58:18.390Z,43.92
2023-05-05T05:00:45.472Z,43.30
2023-05-05T05:03:12.826Z,42.64
2023-05-05T05:05:39.697Z,41.79
2023-05-05T05:08:06.840Z,42.81
2023-05-05T05:10:33.685Z,44.90
2023-05-05T05:13:00.449Z,46.04
2023-05-05T05:15:27.868Z,48.09
2023-05-05T05:17:54.808Z,43.41
2023-05-05T05:20:21.981Z,42.32
2023-05-05T05:22:49.736Z,42.23
2023-05-05T05:25:19.483Z,41.33
2023-05-05T05:27:55.314Z,44.28
2023-05-05T05:30:33.751Z,43.00
2023-05-05T05:33:02.262Z,45.09
2023-05-05T05:35:29.603Z,41.93
2023-05-05T05:37:56.615Z,42.51
2023-05-05T05:40:24.687Z,41.20
2023-05-05T05:42:51.456Z,44.86
2023-05-05T05:45:18.796Z,46.68
2023-05-05T05:47:45.542Z,45.00
2023-05-05T05:50:13.282Z,43.59
2023-05-05T05:52:39.989Z,43.07
2023-05-05T05:55:08.393Z,40.90
2023-05-05T05:57:35.749Z,43.84
2023-05-05T06:00:04.806Z,45.30
2023-05-05T06:02:38.695Z,42.81
2023-05-05T06:05:09.672Z,44.47
2023-05-05T06:07:37.766Z,42.66
2023-05-05T06:10:22.906Z,42.17
2023-05-05T06:12:55.633Z,40.75
2023-05-05T06:15:22.633Z,41.32
2023-05-05T06:17:50.108Z,40.69
2023-05-05T06:20:16.972Z,41.01
2023-05-05T06:22:43.748Z,40.40
2023-05-05T06:25:11.264Z,40.91
2023-05-05T06:27:39.005Z,39.69
2023-05-05T06:30:07.889Z,36.99
2023-05-05T06:32:35.195Z,36.41
2023-05-05T06:35:02.371Z,38.54
2023-05-05T06:37:29.126Z,39.52
2023-05-05T06:39:57.092Z,36.97
2023-05-05T06:42:24.107Z,37.35
2023-05-05T06:44:52.832Z,34.72
2023-05-05T06:47:19.673Z,34.57
2023-05-05T06:49:46.550Z,34.52
2023-05-05T06:52:13.601Z,34.69
2023-05-05T06:54:40.472Z,32.39
2023-05-05T06:57:07.233Z,30.21
2023-05-05T06:59:34.422Z,31.23
2023-05-05T07:02:01.149Z,33.57
2023-05-05T07:04:28.409Z,33.54
2023-05-05T07:06:55.348Z,33.70
2023-05-05T07:09:22.055Z,31.75
2023-05-05T07:11:48.750Z,34.63
2023-05-05T07:14:15.801Z,32.83
2023-05-05T07:16:42.636Z,32.43
2023-05-05T07:19:09.660Z,34.17
2023-05-05T07:21:36.754Z,35.63
2023-05-05T07:24:03.933Z,34.32
2023-05-05T07:26:31.761Z,36.57
2023-05-05T07:28:59.332Z,36.67
2023-05-05T07:31:26.596Z,39.57
2023-05-05T07:33:53.494Z,35.81
2023-05-05T07:36:20.685Z,37.46
2023-05-05T07:38:47.479Z,35.73
2023-05-05T07:41:14.400Z,34.52
2023-05-05T07:43:44.277Z,34.53
2023-05-05T07:46:12.290Z,34.76
2023-05-05T07:48:41.605Z,36.63
2023-05-05T07:51:09.609Z,35.04
2023-05-05T07:53:37.026Z,33.36
2023-05-05T07:56:03.889Z,35.28
2023-05-05T07:58:31.120Z,33.94
2023-05-05T08:00:58.136Z,32.36
2023-05-05T08:03:25.366Z,33.26
2023-05-05T08:05:54.782Z,32.53
2023-05-05T08:08:25.264Z,32.54
2023-05-05T08:10:53.185Z,29.97
2023-05-05T08:13:20.572Z,29.36
2023-05-05T08:15:47.736Z,28.55
2023-05-05T08:18:14.998Z,28.38
2023-05-05T08:20:41.885Z,28.85
2023-05-05T08:23:08.939Z,29.97
2023-05-05T08:25:36.315Z,29.00
2023-05-05T08:28:03.088Z,27.88
2023-05-05T08:30:30.269Z,27.10
2023-05-05T08:32:57.159Z,27.37
2023-05-05T08:35:24.137Z,27.30
2023-05-05T08:37:51.882Z,27.36
2023-05-05T08:40:21.147Z,27.30
2023-05-05T08:42:48.189Z,29.75
2023-05-05T08:45:16.147Z,27.11
2023-05-05T08:47:44.682Z,27.15
2023-05-05T08:50:12.120Z,25.27
2023-05-05T08:52:45.565Z,28.66
2023-05-05T08:55:25.681Z,26.89
2023-05-05T08:57:56.631Z,26.41
2023-05-05T09:00:24.496Z,25.69
2023-05-05T09:02:51.970Z,26.98
2023-05-05T09:05:18.795Z,26.54
2023-05-05T09:07:47.357Z,23.50
2023-05-05T09:10:14.168Z,25.72
2023-05-05T09:12:42.162Z,25.85
2023-05-05T09:15:10.914Z,24.29
2023-05-05T09:17:38.328Z,25.79
2023-05-05T09:20:07.352Z,24.03
2023-05-05T09:22:37.260Z,24.80
2023-05-05T09:25:09.966Z,23.83
2023-05-05T09:27:41.468Z,24.74
2023-05-05T09:30:15.787Z,26.06
2023-05-05T09:32:51.217Z,24.50
2023-05-05T09:35:19.718Z,25.67
2023-05-05T09:37:47.136Z,22.21
2023-05-05T09:40:15.850Z,26.44
2023-05-05T09:42:42.941Z,27.59
2023-05-05T09:45:18.954Z,28.94
2023-05-05T09:47:47.324Z,27.49
2023-05-05T09:50:18.970Z,27.19
2023-05-05T09:53:01.132Z,21.17
2023-05-05T09:55:28.816Z,19.93
2023-05-05T09:57:56.386Z,19.48
2023-05-05T10:00:38.828Z,18.60
2023-05-05T10:03:05.602Z,20.34
2023-05-05T10:05:32.465Z,19.51
2023-05-05T10:08:13.310Z,21.09
2023-05-05T10:11:05.129Z,24.40
2023-05-05T10:13:36.618Z,19.68
2023-05-05T10:16:04.627Z,22.28
2023-05-05T10:18:32.476Z,24.21
2023-05-05T10:21:01.841Z,19.55
2023-05-05T10:23:38.156Z,19.81
2023-05-05T10:26:12.656Z,19.83
2023-05-05T10:28:55.511Z,19.53
2023-05-05T10:31:43.390Z,22.75
2023-05-05T10:34:13.560Z,24.43
2023-05-05T10:36:40.622Z,27.93
2023-05-05T10:39:09.490Z,24.79
2023-05-05T10:41:37.172Z,19.38
2023-05-05T10:44:06.031Z,20.69
2023-05-05T10:46:33.165Z,19.31
2023-05-05T10:49:26.883Z,19.77
2023-05-05T10:52:08.533Z,18.75
2023-05-05T10:54:43.271Z,22.17
2023-05-05T10:57:11.776Z,24.46
2023-05-05T10:59:38.814Z,21.71
2023-05-05T11:02:24.946Z,20.40
2023-05-05T11:05:07.395Z,20.61
2023-05-05T11:07:37.166Z,20.48
2023-05-05T11:10:08.585Z,23.80
2023-05-05T11:12:54.094Z,24.73
2023-05-05T11:15:27.468Z,24.38
2023-05-05T11:17:56.262Z,24.40
2023-05-05T11:20:49.115Z,21.49
2023-05-05T11:23:22.212Z,21.73
2023-05-05T11:25:51.359Z,21.55
2023-05-05T11:28:26.089Z,22.84
2023-05-05T11:30:59.378Z,22.97
2023-05-05T11:33:30.137Z,24.25
2023-05-05T11:36:01.329Z,22.00
2023-05-05T11:38:41.348Z,25.09
2023-05-05T11:41:23.565Z,25.29
2023-05-05T11:43:50.422Z,23.83
2023-05-05T11:46:17.423Z,23.46
2023-05-05T11:48:48.282Z,20.82
2023-05-05T11:51:16.579Z,21.94
2023-05-05T11:53:48.747Z,22.43
2023-05-05T11:56:21.782Z,23.61
2023-05-05T11:58:49.855Z,19.96
2023-05-05T12:01:17.328Z,20.01
2023-05-05T12:03:46.089Z,19.89
2023-05-05T12:06:13.187Z,19.34
2023-05-05T12:08:41.540Z,20.38
2023-05-05T12:11:10.764Z,19.57
2023-05-05T12:13:37.790Z,19.58
2023-05-05T12:16:11.933Z,22.97
2023-05-05T12:18:39.850Z,24.52
2023-05-05T12:21:19.326Z,25.38
2023-05-05T12:23:46.954Z,23.71
2023-05-05T12:26:31.153Z,24.53
2023-05-05T12:29:00.089Z,25.08
2023-05-05T12:31:40.132Z,24.65
2023-05-05T12:34:11.200Z,24.56
2023-05-05T12:36:39.529Z,23.93
2023-05-05T12:39:06.400Z,23.90
2023-05-05T12:41:34.390Z,23.71
2023-05-05T12:44:03.341Z,22.55
2023-05-05T12:46:31.329Z,23.69
2023-05-05T12:49:06.072Z,23.35
2023-05-05T12:51:37.147Z,22.42
2023-05-05T12:54:13.240Z,19.97
2023-05-05T12:56:45.646Z,24.59
2023-05-05T12:59:30.039Z,20.39
2023-05-05T13:02:02.859Z,22.17
2023-05-05T13:04:29.962Z,20.32
2023-05-05T13:07:08.839Z,22.10
2023-05-05T13:09:35.680Z,23.37
2023-05-05T13:12:04.080Z,22.75
2023-05-05T13:14:37.426Z,21.40
2023-05-05T13:17:04.607Z,21.20
2023-05-05T13:19:32.509Z,21.87
2023-05-05T13:21:59.274Z,22.02
2023-05-05T13:24:42.254Z,23.01
2023-05-05T13:27:13.877Z,23.79
2023-05-05T13:29:41.771Z,22.57
2023-05-05T13:32:09.561Z,22.52
2023-05-05T13:34:36.350Z,24.15
2023-05-05T13:37:03.307Z,21.38
2023-05-05T13:39:30.100Z,23.16
2023-05-05T13:41:56.895Z,21.78
2023-05-05T13:44:24.277Z,22.04
2023-05-05T13:46:51.206Z,23.98
2023-05-05T13:49:18.311Z,22.61
2023-05-05T13:51:47.188Z,21.91
2023-05-05T13:54:14.279Z,23.51
2023-05-05T13:56:41.066Z,23.11
2023-05-05T13:59:08.097Z,21.94
2023-05-05T14:01:35.235Z,21.64
2023-05-05T14:04:04.483Z,23.40
2023-05-05T14:06:33.159Z,23.14
2023-05-05T14:09:00.215Z,23.08
2023-05-05T14:11:27.060Z,23.67
2023-05-05T14:13:54.231Z,26.31
2023-05-05T14:16:21.148Z,25.00
2023-05-05T14:18:48.487Z,27.06
2023-05-05T14:21:15.555Z,24.80
2023-05-05T14:23:42.256Z,26.40
2023-05-05T14:26:09.374Z,25.26
2023-05-05T14:28:36.208Z,25.56
2023-05-05T14:31:03.338Z,23.48
2023-05-05T14:33:30.189Z,23.73
2023-05-05T14:35:56.994Z,25.45
2023-05-05T14:38:23.735Z,24.65
2023-05-05T14:40:50.711Z,23.97
2023-05-05T14:43:17.538Z,23.54
2023-05-05T14:45:44.742Z,24.22
2023-05-05T14:48:11.573Z,25.49
2023-05-05T14:50:39.950Z,23.98
2023-05-05T14:53:06.744Z,23.75
2023-05-05T14:55:33.833Z,25.88
2023-05-05T14:58:00.886Z,24.46
2023-05-05T15:00:28.497Z,25.28
2023-05-05T15:02:55.702Z,25.11
2023-05-05T15:05:22.551Z,26.99
2023-05-05T15:07:49.466Z,25.84
2023-05-05T15:10:16.344Z,25.56
2023-05-05T15:12:43.914Z,24.00
2023-05-05T15:15:11.873Z,25.09
2023-05-05T15:17:38.916Z,24.67
2023-05-05T15:20:06.910Z,24.37
2023-05-05T15:22:34.410Z,25.34
2023-05-05T15:25:01.368Z,26.20
2023-05-05T15:27:28.881Z,25.75
2023-05-05T15:29:55.912Z,26.19
2023-05-05T15:32:22.803Z,24.91
2023-05-05T15:34:50.529Z,24.69
2023-05-05T15:37:19.304Z,26.53
2023-05-05T15:39:46.124Z,25.89
2023-05-05T15:42:12.884Z,24.77
2023-05-05T15:44:40.005Z,26.68
2023-05-05T15:47:06.927Z,24.72
2023-05-05T15:49:34.119Z,26.93
2023-05-05T15:52:01.239Z,25.61
2023-05-05T15:54:28.018Z,26.62
2023-05-05T15:56:55.178Z,26.69
2023-05-05T15:59:22.779Z,25.13
2023-05-05T16:01:49.743Z,25.34
2023-05-05T16:04:16.471Z,27.47
2023-05-05T16:06:43.362Z,26.41
2023-05-05T16:09:10.291Z,26.54
2023-05-05T16:11:37.470Z,27.78
2023-05-05T16:14:04.874Z,28.92
2023-05-05T16:16:31.588Z,25.88
2023-05-05T16:18:58.383Z,25.77
2023-05-05T16:21:25.659Z,25.83
2023-05-05T16:23:52.590Z,26.63
2023-05-05T16:26:19.748Z,28.87
2023-05-05T16:28:46.616Z,26.37
2023-05-05T16:31:13.645Z,27.02
2023-05-05T16:33:41.495Z,29.26
2023-05-05T16:36:12.528Z,28.38
2023-05-05T16:38:40.662Z,28.96
2023-05-05T16:41:07.757Z,30.61
2023-05-05T16:43:37.152Z,29.48
2023-05-05T16:46:04.887Z,29.15
2023-05-05T16:48:31.828Z,28.58
2023-05-05T16:50:58.778Z,28.71
2023-05-05T16:53:25.790Z,29.10
2023-05-05T16:55:53.490Z,30.55
2023-05-05T16:58:21.533Z,28.75
2023-05-05T17:00:52.089Z,29.47
2023-05-05T17:03:20.473Z,27.55
2023-05-05T17:05:49.996Z,29.66
2023-05-05T17:08:17.427Z,29.57
2023-05-05T17:10:45.316Z,28.69
2023-05-05T17:13:13.684Z,29.12
2023-05-05T17:15:41.924Z,27.77
2023-05-05T17:18:09.243Z,29.57
2023-05-05T17:20:36.655Z,29.00
2023-05-05T17:23:03.733Z,28.19
2023-05-05T17:25:31.482Z,28.50
2023-05-05T17:27:58.234Z,29.67
2023-05-05T17:30:25.054Z,30.67
2023-05-05T17:32:52.555Z,29.39
2023-05-05T17:35:19.583Z,29.17
2023-05-05T17:37:46.592Z,29.50
2023-05-05T17:40:13.433Z,31.26
2023-05-05T17:42:40.601Z,29.83
2023-05-05T17:45:08.337Z,29.31
2023-05-05T17:47:36.354Z,29.53
2023-05-05T17:50:03.428Z,29.55
2023-05-05T17:52:30.377Z,29.04
2023-05-05T17:54:57.454Z,28.81
2023-05-05T17:57:24.128Z,30.79
2023-05-05T17:59:52.267Z,30.38
2023-05-05T18:02:19.613Z,30.62
2023-05-05T18:04:47.371Z,30.40
2023-05-05T18:07:14.780Z,28.93
2023-05-05T18:09:42.739Z,30.04
2023-05-05T18:12:09.580Z,28.95
2023-05-05T18:14:36.696Z,30.14
2023-05-05T18:17:03.498Z,29.51
2023-05-05T18:19:30.852Z,30.01
2023-05-05T18:21:58.386Z,31.95
2023-05-05T18:24:25.333Z,32.39
2023-05-05T18:26:52.919Z,35.60
2023-05-05T18:29:24.277Z,37.51
2023-05-05T18:31:53.523Z,37.75
2023-05-05T18:34:21.517Z,36.22
2023-05-05T18:36:50.787Z,34.86
2023-05-05T18:39:18.119Z,34.80
2023-05-05T18:41:44.948Z,37.33
2023-05-05T18:44:12.161Z,37.21
2023-05-05T18:46:39.172Z,38.09
2023-05-05T18:49:06.735Z,36.19
2023-05-05T18:51:33.468Z,37.00
2023-05-05T18:54:01.191Z,37.28
2023-05-05T18:56:28.324Z,39.54
2023-05-05T18:58:55.631Z,41.35
2023-05-05T19:01:23.372Z,40.71
2023-05-05T19:03:50.186Z,41.55
2023-05-05T19:06:18.060Z,41.29
2023-05-05T19:08:46.640Z,41.05
2023-05-05T19:11:15.122Z,40.15
2023-05-05T19:13:42.649Z,38.87
2023-05-05T19:16:11.256Z,41.20
2023-05-05T19:18:38.775Z,43.26
2023-05-05T19:21:06.344Z,44.95
2023-05-05T19:23:36.439Z,46.02
2023-05-05T19:26:03.906Z,51.32
2023-05-05T19:28:30.869Z,55.88
2023-05-05T19:30:58.013Z,42.54
2023-05-05T19:33:24.801Z,39.92
2023-05-05T19:35:53.282Z,38.43
2023-05-05T19:38:20.364Z,42.15
2023-05-05T19:40:47.949Z,38.08
2023-05-05T19:43:15.105Z,38.81
2023-05-05T19:45:42.422Z,41.05
2023-05-05T19:48:09.263Z,41.27
2023-05-05T19:50:36.740Z,40.57
2023-05-05T19:53:03.954Z,42.01
2023-05-05T19:55:30.965Z,43.48
2023-05-05T19:57:58.705Z,44.20
2023-05-05T20:03:25.862Z,42.09
2023-05-05T20:05:52.659Z,42.11
2023-05-05T20:08:19.562Z,40.95
2023-05-05T20:10:46.543Z,44.15
2023-05-05T20:13:14.084Z,40.21
2023-05-05T20:15:41.469Z,41.82
2023-05-05T20:18:08.969Z,40.76
2023-05-05T20:20:35.908Z,39.77
2023-05-05T20:23:03.353Z,44.68
2023-05-05T20:25:30.593Z,46.46
2023-05-05T20:27:57.456Z,43.63
2023-05-05T20:30:24.512Z,44.45
2023-05-05T20:32:51.451Z,45.42
2023-05-05T20:35:18.773Z,42.27
2023-05-05T20:37:45.896Z,44.08
2023-05-05T20:40:13.302Z,45.28
2023-05-05T20:42:40.170Z,45.59
2023-05-05T20:45:08.204Z,46.91
2023-05-05T20:47:35.547Z,45.21
2023-05-05T20:50:03.790Z,46.11
2023-05-05T20:52:30.645Z,43.53
2023-05-05T20:54:57.327Z,45.25
2023-05-05T20:57:24.613Z,45.28
2023-05-05T20:59:51.445Z,46.00
2023-05-05T21:02:19.131Z,45.24
2023-05-05T21:04:46.166Z,42.59
2023-05-05T21:07:12.873Z,42.45
2023-05-05T21:09:40.056Z,43.82
2023-05-05T21:12:07.379Z,41.95
2023-05-05T21:14:34.132Z,43.66
2023-05-05T21:17:01.157Z,43.26
2023-05-05T21:19:29.741Z,44.07
2023-05-05T21:21:59.218Z,43.74
2023-05-05T21:24:26.102Z,47.98
2023-05-05T21:26:53.103Z,46.13
2023-05-05T21:29:20.007Z,44.89
2023-05-05T21:31:50.726Z,47.69
2023-05-05T21:34:18.199Z,48.86
2023-05-05T21:36:45.426Z,44.25
2023-05-05T21:39:12.711Z,44.80
2023-05-05T21:41:39.653Z,47.78
2023-05-05T21:44:06.673Z,48.75
2023-05-05T21:46:33.984Z,45.18
2023-05-05T21:49:00.932Z,43.60
2023-05-05T21:51:27.620Z,44.38
2023-05-05T21:53:54.468Z,43.71
2023-05-05T21:56:21.219Z,43.51
2023-05-05T21:58:47.953Z,43.38
2023-05-05T22:01:14.734Z,43.77
2023-05-05T22:03:43.642Z,43.37
2023-05-05T22:06:11.666Z,41.45
2023-05-05T22:08:38.676Z,46.51
2023-05-05T22:11:05.507Z,48.37
2023-05-05T22:13:32.244Z,47.85
2023-05-05T22:15:59.225Z,43.76
2023-05-05T22:18:26.002Z,43.08
2023-05-05T22:20:53.113Z,44.56
2023-05-05T22:23:19.816Z,41.69
2023-05-05T22:25:46.768Z,42.42
2023-05-05T22:28:13.579Z,41.20
2023-05-05T22:30:40.655Z,43.82
2023-05-05T22:33:07.463Z,42.17
2023-05-05T22:35:34.814Z,42.11
2023-05-05T22:38:01.566Z,41.03
2023-05-05T22:40:28.340Z,40.08
2023-05-05T22:42:55.368Z,39.59
2023-05-05T22:45:23.355Z,39.59
2023-05-05T22:47:50.682Z,40.52
2023-05-05T22:50:18.091Z,40.14
2023-05-05T22:52:44.964Z,39.83
2023-05-05T22:55:14.083Z,39.64
2023-05-05T22:57:41.910Z,41.10
2023-05-05T23:00:09.414Z,39.49
2023-05-05T23:02:36.646Z,39.19
2023-05-05T23:05:03.729Z,39.03
2023-05-05T23:07:30.806Z,40.32
2023-05-05T23:09:57.552Z,39.26
2023-05-05T23:12:24.367Z,38.73
2023-05-05T23:14:51.128Z,38.58
2023-05-05T23:17:17.892Z,39.54
2023-05-05T23:19:47.806Z,39.10
2023-05-05T23:22:14.766Z,40.35
2023-05-05T23:24:41.592Z,40.55
2023-05-05T23:27:08.726Z,39.27
2023-05-05T23:29:35.734Z,41.33
2023-05-05T23:32:02.465Z,41.06
2023-05-05T23:34:29.209Z,40.96
2023-05-05T23:36:56.151Z,40.36
2023-05-05T23:39:22.951Z,39.61
2023-05-05T23:41:50.067Z,40.88
2023-05-05T23:44:16.805Z,40.50
2023-05-05T23:46:43.568Z,39.50
2023-05-05T23:49:10.613Z,38.69
2023-05-05T23:51:37.373Z,41.20
2023-05-05T23:54:04.509Z,39.89
2023-05-05T23:56:31.509Z,39.93
2023-05-05T23:58:58.204Z,40.06
